createdAt,value
2022-12-07T00:00:20.838Z,37.60
2022-12-07T00:01:20.976Z,36.10
2022-12-07T00:02:21.284Z,37.40
2022-12-07T00:03:21.559Z,35.50
2022-12-07T00:04:21.626Z,42.10
2022-12-07T00:05:21.783Z,36.00
2022-12-07T00:06:21.926Z,37.80
2022-12-07T00:07:26.388Z,35.20
2022-12-07T00:08:23.314Z,37.10
2022-12-07T00:09:22.457Z,39.00
2022-12-07T00:10:22.714Z,38.20
2022-12-07T00:11:22.805Z,41.40
2022-12-07T00:12:23.050Z,40.10
2022-12-07T00:13:23.167Z,39.70
2022-12-07T00:14:23.449Z,35.90
2022-12-07T00:15:23.570Z,37.80
2022-12-07T00:16:23.888Z,37.70
2022-12-07T00:17:24.025Z,42.00
2022-12-07T00:18:24.203Z,36.00
2022-12-07T00:19:24.381Z,36.10
2022-12-07T00:20:24.507Z,37.80
2022-12-07T00:21:24.650Z,38.40
2022-12-07T00:22:24.932Z,36.40
2022-12-07T00:23:25.039Z,35.50
2022-12-07T00:24:25.306Z,36.10
2022-12-07T00:25:25.457Z,31.40
2022-12-07T00:26:25.592Z,29.20
2022-12-07T00:27:25.751Z,30.50
2022-12-07T00:28:25.884Z,29.80
2022-12-07T00:29:26.033Z,26.50
2022-12-07T00:30:26.202Z,37.20
2022-12-07T00:31:26.353Z,39.50
2022-12-07T00:32:26.521Z,32.80
2022-12-07T00:33:26.646Z,33.50
2022-12-07T00:34:26.911Z,35.70
2022-12-07T00:35:27.042Z,32.90
2022-12-07T00:36:27.702Z,28.70
2022-12-07T00:37:27.417Z,29.10
2022-12-07T00:38:27.571Z,30.10
2022-12-07T00:39:27.707Z,25.70
2022-12-07T00:40:27.835Z,27.00
2022-12-07T00:41:28.073Z,28.00
2022-12-07T00:42:28.336Z,25.10
2022-12-07T00:43:28.492Z,27.00
2022-12-07T00:44:28.673Z,25.90
2022-12-07T00:45:28.839Z,27.30
2022-12-07T00:46:29.041Z,29.80
2022-12-07T00:47:29.187Z,28.00
2022-12-07T00:48:29.325Z,26.60
2022-12-07T00:49:29.499Z,35.60
2022-12-07T00:50:29.656Z,30.50
2022-12-07T00:51:29.788Z,27.00
2022-12-07T00:52:29.945Z,28.80
2022-12-07T00:53:30.088Z,25.90
2022-12-07T00:54:30.256Z,28.30
2022-12-07T00:55:30.394Z,27.00
2022-12-07T00:56:30.564Z,23.00
2022-12-07T00:57:30.710Z,24.30
2022-12-07T00:58:30.862Z,23.10
2022-12-07T00:59:31.018Z,22.00
2022-12-07T01:00:31.157Z,23.20
2022-12-07T01:01:31.426Z,25.20
2022-12-07T01:02:31.500Z,22.50
2022-12-07T01:03:31.710Z,22.30
2022-12-07T01:04:31.853Z,20.80
2022-12-07T01:05:32.014Z,20.50
2022-12-07T01:06:32.169Z,21.00
2022-12-07T01:07:32.299Z,23.30
2022-12-07T01:08:32.479Z,22.10
2022-12-07T01:09:32.617Z,21.10
2022-12-07T01:10:32.753Z,21.50
2022-12-07T01:11:32.887Z,22.80
2022-12-07T01:12:33.045Z,20.50
2022-12-07T01:13:33.209Z,20.20
2022-12-07T01:14:33.390Z,21.20
2022-12-07T01:15:33.518Z,21.40
2022-12-07T01:16:33.740Z,20.50
2022-12-07T01:17:33.835Z,18.60
2022-12-07T01:18:33.991Z,22.40
2022-12-07T01:19:34.128Z,17.80
2022-12-07T01:20:34.269Z,18.80
2022-12-07T01:21:34.416Z,17.70
2022-12-07T01:22:34.559Z,16.80
2022-12-07T01:23:34.713Z,18.20
2022-12-07T01:24:34.844Z,16.60
2022-12-07T01:25:34.972Z,16.30
2022-12-07T01:26:35.257Z,15.50
2022-12-07T01:27:35.400Z,20.30
2022-12-07T01:28:35.562Z,17.60
2022-12-07T01:29:35.705Z,17.00
2022-12-07T01:30:35.894Z,15.40
2022-12-07T01:31:36.048Z,18.70
2022-12-07T01:32:36.193Z,17.00
2022-12-07T01:33:36.369Z,16.80
2022-12-07T01:34:36.490Z,14.40
2022-12-07T01:35:36.625Z,17.00
2022-12-07T01:36:36.780Z,16.30
2022-12-07T01:37:36.915Z,15.70
2022-12-07T01:38:37.169Z,16.70
2022-12-07T01:39:37.332Z,14.90
2022-12-07T01:40:37.468Z,17.00
2022-12-07T01:41:37.611Z,14.80
2022-12-07T01:42:37.748Z,13.30
2022-12-07T01:43:37.892Z,15.70
2022-12-07T01:44:38.019Z,15.00
2022-12-07T01:45:38.277Z,15.50
2022-12-07T01:46:38.439Z,15.80
2022-12-07T01:47:38.548Z,15.60
2022-12-07T01:48:38.678Z,16.90
2022-12-07T01:49:38.815Z,14.60
2022-12-07T01:50:38.944Z,14.30
2022-12-07T01:51:39.189Z,12.90
2022-12-07T01:52:39.314Z,14.90
2022-12-07T01:53:39.463Z,15.50
2022-12-07T01:54:39.582Z,16.60
2022-12-07T01:55:39.837Z,13.50
2022-12-07T01:56:39.997Z,15.00
2022-12-07T01:57:40.118Z,12.70
2022-12-07T01:58:40.364Z,14.70
2022-12-07T01:59:40.518Z,13.10
2022-12-07T02:00:40.709Z,13.50
2022-12-07T02:01:40.894Z,15.30
2022-12-07T02:02:41.035Z,14.20
2022-12-07T02:03:41.301Z,12.60
2022-12-07T02:04:41.480Z,13.60
2022-12-07T02:05:41.619Z,13.60
2022-12-07T02:06:41.854Z,13.70
2022-12-07T02:07:42.082Z,12.80
2022-12-07T02:08:42.203Z,14.80
2022-12-07T02:09:42.358Z,16.60
2022-12-07T02:10:42.479Z,15.40
2022-12-07T02:11:42.719Z,13.00
2022-12-07T02:12:43.870Z,13.70
2022-12-07T02:13:43.142Z,15.70
2022-12-07T02:14:43.259Z,13.40
2022-12-07T02:15:43.541Z,13.00
2022-12-07T02:16:43.651Z,12.40
2022-12-07T02:17:43.897Z,12.40
2022-12-07T02:18:44.028Z,13.10
2022-12-07T02:19:44.285Z,15.70
2022-12-07T02:20:44.417Z,15.20
2022-12-07T02:21:44.664Z,11.90
2022-12-07T02:22:44.795Z,14.40
2022-12-07T02:23:45.064Z,14.00
2022-12-07T02:24:45.195Z,13.70
2022-12-07T02:25:45.472Z,14.10
2022-12-07T02:26:45.599Z,13.70
2022-12-07T02:27:45.849Z,13.90
2022-12-07T02:28:46.002Z,13.10
2022-12-07T02:29:46.142Z,13.70
2022-12-07T02:30:46.316Z,13.80
2022-12-07T02:31:46.440Z,12.10
2022-12-07T02:32:46.594Z,12.90
2022-12-07T02:33:46.767Z,14.50
2022-12-07T02:34:46.895Z,13.70
2022-12-07T02:35:47.038Z,14.70
2022-12-07T02:36:47.172Z,14.20
2022-12-07T02:37:47.308Z,12.50
2022-12-07T02:38:47.551Z,14.10
2022-12-07T02:39:47.705Z,15.70
2022-12-07T02:40:47.837Z,13.60
2022-12-07T02:41:47.990Z,14.70
2022-12-07T02:42:48.127Z,14.00
2022-12-07T02:43:48.277Z,15.60
2022-12-07T02:44:48.418Z,13.50
2022-12-07T02:45:48.680Z,13.90
2022-12-07T02:46:48.882Z,16.80
2022-12-07T02:47:49.024Z,16.00
2022-12-07T02:48:49.180Z,15.60
2022-12-07T02:49:49.315Z,14.60
2022-12-07T02:50:49.463Z,16.70
2022-12-07T02:51:49.609Z,15.20
2022-12-07T02:52:49.751Z,14.20
2022-12-07T02:53:50.035Z,15.50
2022-12-07T02:54:50.172Z,14.40
2022-12-07T02:55:50.313Z,14.50
2022-12-07T02:56:50.443Z,13.40
2022-12-07T02:57:50.702Z,14.70
2022-12-07T02:58:50.854Z,14.10
2022-12-07T02:59:50.990Z,13.70
2022-12-07T03:00:51.136Z,15.60
2022-12-07T03:01:51.335Z,18.50
2022-12-07T03:02:51.475Z,15.50
2022-12-07T03:03:51.638Z,15.80
2022-12-07T03:04:51.771Z,15.30
2022-12-07T03:05:51.913Z,16.20
2022-12-07T03:06:52.040Z,15.10
2022-12-07T03:07:52.321Z,16.30
2022-12-07T03:08:52.449Z,15.90
2022-12-07T03:09:52.593Z,16.40
2022-12-07T03:10:52.738Z,18.10
2022-12-07T03:11:52.906Z,16.30
2022-12-07T03:12:53.033Z,15.90
2022-12-07T03:13:53.194Z,20.00
2022-12-07T03:14:53.327Z,17.50
2022-12-07T03:15:53.560Z,16.80
2022-12-07T03:16:53.667Z,18.70
2022-12-07T03:17:53.807Z,16.90
2022-12-07T03:18:54.067Z,18.30
2022-12-07T03:19:54.215Z,17.30
2022-12-07T03:20:54.340Z,18.90
2022-12-07T03:21:54.592Z,20.50
2022-12-07T03:22:54.826Z,19.90
2022-12-07T03:23:55.083Z,17.40
2022-12-07T03:24:55.219Z,17.50
2022-12-07T03:26:00.218Z,17.60
2022-12-07T03:26:56.553Z,18.00
2022-12-07T03:27:55.707Z,17.90
2022-12-07T03:28:55.857Z,18.70
2022-12-07T03:29:55.992Z,17.10
2022-12-07T03:30:56.170Z,20.60
2022-12-07T03:31:56.326Z,20.40
2022-12-07T03:32:56.473Z,17.50
2022-12-07T03:33:56.626Z,18.60
2022-12-07T03:34:56.755Z,19.00
2022-12-07T03:35:56.900Z,20.00
2022-12-07T03:36:57.054Z,18.80
2022-12-07T03:37:57.193Z,19.50
2022-12-07T03:38:57.334Z,18.70
2022-12-07T03:39:57.469Z,18.10
2022-12-07T03:40:57.595Z,18.20
2022-12-07T03:41:57.734Z,17.40
2022-12-07T03:42:57.898Z,18.40
2022-12-07T03:43:58.053Z,18.70
2022-12-07T03:44:58.182Z,19.80
2022-12-07T03:45:58.327Z,19.80
2022-12-07T03:46:58.600Z,20.20
2022-12-07T03:47:58.649Z,18.70
2022-12-07T03:48:58.825Z,20.40
2022-12-07T03:49:59.079Z,21.00
2022-12-07T03:50:59.179Z,20.60
2022-12-07T03:51:59.336Z,22.60
2022-12-07T03:52:59.479Z,20.50
2022-12-07T03:53:59.635Z,21.80
2022-12-07T03:56:11.847Z,23.00
2022-12-07T03:57:11.986Z,23.50
2022-12-07T03:58:12.166Z,21.90
2022-12-07T03:59:12.314Z,23.60
2022-12-07T04:00:12.482Z,25.60
2022-12-07T04:01:12.637Z,24.90
2022-12-07T04:02:12.893Z,25.70
2022-12-07T04:03:12.993Z,27.40
2022-12-07T04:04:13.164Z,28.00
2022-12-07T04:05:13.302Z,30.50
2022-12-07T04:06:13.488Z,29.90
2022-12-07T04:07:13.650Z,31.40
2022-12-07T04:08:13.905Z,29.00
2022-12-07T04:09:13.946Z,30.00
2022-12-07T04:10:14.117Z,32.50
2022-12-07T04:11:14.276Z,33.90
2022-12-07T04:12:14.435Z,35.80
2022-12-07T04:13:14.576Z,35.60
2022-12-07T04:14:14.728Z,33.30
2022-12-07T04:15:14.882Z,36.90
2022-12-07T04:16:15.077Z,38.30
2022-12-07T04:17:15.210Z,41.50
2022-12-07T04:18:15.386Z,41.00
2022-12-07T04:19:15.526Z,45.40
2022-12-07T04:20:15.692Z,44.30
2022-12-07T04:21:15.857Z,45.60
2022-12-07T04:22:16.016Z,46.80
2022-12-07T04:23:16.147Z,46.60
2022-12-07T04:24:16.415Z,49.80
2022-12-07T04:25:16.445Z,48.50
2022-12-07T04:26:16.619Z,51.30
2022-12-07T04:27:16.761Z,56.20
2022-12-07T04:28:16.922Z,56.00
2022-12-07T04:29:17.059Z,60.10
2022-12-07T04:30:17.220Z,54.70
2022-12-07T04:31:17.451Z,60.60
2022-12-07T04:32:17.517Z,59.60
2022-12-07T04:33:17.672Z,64.10
2022-12-07T04:34:17.828Z,58.90
2022-12-07T04:35:17.974Z,63.70
2022-12-07T04:36:18.138Z,64.80
2022-12-07T04:37:18.291Z,61.70
2022-12-07T04:38:18.424Z,67.70
2022-12-07T04:39:18.574Z,67.20
2022-12-07T04:40:18.731Z,66.70
2022-12-07T04:41:18.888Z,72.40
2022-12-07T04:42:19.033Z,73.00
2022-12-07T04:43:19.176Z,68.50
2022-12-07T04:44:19.333Z,75.60
2022-12-07T04:45:19.476Z,74.50
2022-12-07T04:46:19.676Z,75.50
2022-12-07T04:47:19.737Z,77.80
2022-12-07T04:48:19.877Z,82.40
2022-12-07T04:49:20.036Z,80.60
2022-12-07T04:50:20.165Z,79.20
2022-12-07T04:51:20.367Z,79.60
2022-12-07T04:52:20.534Z,76.40
2022-12-07T04:53:20.659Z,79.20
2022-12-07T04:54:20.818Z,81.80
2022-12-07T04:55:20.955Z,82.70
2022-12-07T04:56:21.144Z,82.00
2022-12-07T04:57:21.285Z,84.90
2022-12-07T04:58:21.438Z,85.20
2022-12-07T04:59:21.593Z,84.10
2022-12-07T05:00:21.755Z,91.40
2022-12-07T05:01:21.998Z,84.70
2022-12-07T05:02:22.161Z,86.80
2022-12-07T05:03:22.208Z,93.10
2022-12-07T05:04:22.388Z,90.50
2022-12-07T05:05:22.610Z,92.50
2022-12-07T05:06:22.702Z,94.50
2022-12-07T05:07:22.881Z,97.30
2022-12-07T05:08:23.123Z,94.20
2022-12-07T05:09:23.194Z,95.90
2022-12-07T05:10:23.341Z,92.20
2022-12-07T05:11:23.505Z,95.90
2022-12-07T05:12:23.653Z,92.70
2022-12-07T05:13:23.803Z,93.80
2022-12-07T05:14:23.959Z,100.20
2022-12-07T05:15:24.113Z,94.50
2022-12-07T05:16:24.419Z,94.90
2022-12-07T05:17:24.459Z,104.00
2022-12-07T05:18:24.609Z,96.40
2022-12-07T05:19:24.756Z,95.40
2022-12-07T05:20:24.916Z,98.30
2022-12-07T05:21:25.087Z,103.20
2022-12-07T05:22:25.247Z,99.90
2022-12-07T05:23:25.387Z,98.80
2022-12-07T05:24:25.557Z,102.40
2022-12-07T05:25:25.712Z,101.50
2022-12-07T05:26:25.898Z,99.50
2022-12-07T05:27:26.079Z,98.00
2022-12-07T05:28:26.286Z,102.10
2022-12-07T05:29:26.324Z,108.80
2022-12-07T05:30:26.492Z,100.70
2022-12-07T05:31:26.731Z,106.60
2022-12-07T05:32:26.794Z,104.10
2022-12-07T05:33:26.968Z,103.10
2022-12-07T05:34:27.150Z,108.30
2022-12-07T05:35:27.278Z,103.00
2022-12-07T05:36:27.446Z,112.10
2022-12-07T05:37:27.590Z,111.30
2022-12-07T05:38:27.778Z,112.70
2022-12-07T05:39:27.944Z,105.90
2022-12-07T05:40:28.089Z,108.80
2022-12-07T05:41:28.251Z,108.70
2022-12-07T05:42:28.422Z,108.50
2022-12-07T05:43:28.582Z,111.40
2022-12-07T05:44:28.737Z,108.50
2022-12-07T05:45:28.924Z,108.80
2022-12-07T05:46:29.083Z,105.70
2022-12-07T05:47:29.230Z,108.60
2022-12-07T05:48:29.393Z,114.80
2022-12-07T05:49:29.546Z,112.20
2022-12-07T05:50:29.706Z,116.10
2022-12-07T05:51:29.914Z,113.10
2022-12-07T05:52:29.971Z,109.40
2022-12-07T05:53:30.127Z,113.70
2022-12-07T05:54:30.286Z,110.40
2022-12-07T05:55:30.435Z,111.40
2022-12-07T05:56:30.616Z,110.90
2022-12-07T05:57:30.779Z,116.00
2022-12-07T05:58:30.935Z,114.40
2022-12-07T05:59:31.084Z,117.90
2022-12-07T06:00:31.256Z,116.30
2022-12-07T06:01:31.422Z,119.00
2022-12-07T06:02:31.658Z,119.00
2022-12-07T06:03:31.886Z,118.50
2022-12-07T06:04:31.933Z,113.70
2022-12-07T06:05:32.061Z,122.10
2022-12-07T06:06:32.344Z,122.70
2022-12-07T06:07:32.402Z,114.70
2022-12-07T06:08:32.592Z,117.00
2022-12-07T06:09:32.713Z,121.20
2022-12-07T06:10:32.859Z,117.10
2022-12-07T06:11:33.017Z,136.50
2022-12-07T06:12:33.161Z,138.80
2022-12-07T06:13:33.311Z,134.10
2022-12-07T06:14:33.460Z,133.80
2022-12-07T06:15:33.663Z,136.00
2022-12-07T06:16:33.908Z,130.20
2022-12-07T06:17:33.997Z,134.10
2022-12-07T06:18:34.146Z,133.30
2022-12-07T06:19:34.334Z,131.70
2022-12-07T06:20:34.397Z,136.60
2022-12-07T06:21:34.596Z,140.30
2022-12-07T06:22:34.796Z,131.40
2022-12-07T06:23:34.928Z,146.00
2022-12-07T06:24:35.006Z,138.70
2022-12-07T06:25:35.154Z,140.00
2022-12-07T06:26:35.340Z,141.30
2022-12-07T06:27:35.506Z,140.00
2022-12-07T06:28:35.684Z,145.70
2022-12-07T06:29:35.845Z,133.50
2022-12-07T06:30:36.054Z,137.30
2022-12-07T06:31:36.171Z,127.00
2022-12-07T06:32:36.329Z,109.50
2022-12-07T06:33:36.503Z,144.10
2022-12-07T06:34:36.696Z,112.00
2022-12-07T06:35:36.881Z,121.90
2022-12-07T06:36:37.092Z,123.70
2022-12-07T06:37:37.165Z,140.30
2022-12-07T06:38:37.365Z,127.60
2022-12-07T06:39:37.440Z,119.70
2022-12-07T06:40:37.634Z,118.30
2022-12-07T06:41:37.833Z,122.80
2022-12-07T06:42:38.023Z,119.80
2022-12-07T06:43:38.181Z,131.30
2022-12-07T06:44:38.340Z,124.50
2022-12-07T06:45:38.530Z,132.00
2022-12-07T06:46:38.688Z,139.50
2022-12-07T06:47:42.021Z,131.30
2022-12-07T06:48:38.975Z,128.30
2022-12-07T06:49:39.122Z,122.80
2022-12-07T06:50:39.278Z,124.10
2022-12-07T06:51:39.476Z,125.90
2022-12-07T06:52:39.517Z,133.10
2022-12-07T06:53:39.653Z,121.60
2022-12-07T06:54:39.818Z,119.30
2022-12-07T06:55:39.956Z,121.70
2022-12-07T06:56:40.132Z,115.40
2022-12-07T06:57:40.288Z,118.70
2022-12-07T06:58:40.440Z,125.00
2022-12-07T06:59:40.587Z,117.00
2022-12-07T07:00:40.743Z,110.40
2022-12-07T07:01:41.002Z,117.40
2022-12-07T07:02:41.117Z,114.30
2022-12-07T07:03:41.163Z,117.50
2022-12-07T07:04:41.478Z,115.40
2022-12-07T07:05:41.392Z,116.40
2022-12-07T07:06:41.570Z,111.00
2022-12-07T07:08:05.398Z,114.40
2022-12-07T07:08:42.905Z,109.60
2022-12-07T07:09:41.963Z,111.70
2022-12-07T07:10:42.114Z,117.40
2022-12-07T07:11:42.271Z,109.70
2022-12-07T07:12:42.411Z,111.10
2022-12-07T07:13:42.550Z,111.10
2022-12-07T07:14:42.700Z,107.90
2022-12-07T07:15:42.844Z,101.20
2022-12-07T07:16:43.042Z,93.90
2022-12-07T07:17:43.089Z,97.10
2022-12-07T07:18:43.223Z,94.60
2022-12-07T07:19:43.358Z,91.30
2022-12-07T07:20:43.673Z,88.50
2022-12-07T07:21:43.592Z,91.70
2022-12-07T07:22:43.727Z,82.70
2022-12-07T07:23:43.856Z,87.10
2022-12-07T07:24:44.000Z,90.30
2022-12-07T07:25:44.128Z,85.00
2022-12-07T07:26:44.286Z,89.60
2022-12-07T07:27:44.417Z,90.00
2022-12-07T07:28:44.559Z,90.70
2022-12-07T07:29:44.690Z,79.60
2022-12-07T07:30:44.902Z,80.60
2022-12-07T07:31:45.010Z,81.50
2022-12-07T07:32:45.153Z,82.00
2022-12-07T07:33:45.287Z,84.60
2022-12-07T07:34:45.426Z,82.50
2022-12-07T07:35:45.565Z,78.50
2022-12-07T07:36:45.721Z,73.90
2022-12-07T07:37:45.874Z,75.30
2022-12-07T07:38:46.015Z,71.70
2022-12-07T07:39:46.180Z,71.80
2022-12-07T07:40:46.321Z,75.60
2022-12-07T07:41:46.489Z,69.00
2022-12-07T07:42:46.630Z,72.20
2022-12-07T07:43:46.776Z,74.20
2022-12-07T07:44:46.911Z,69.10
2022-12-07T07:45:47.091Z,73.20
2022-12-07T07:46:47.228Z,76.30
2022-12-07T07:47:47.373Z,66.90
2022-12-07T07:48:47.514Z,67.30
2022-12-07T07:49:48.374Z,68.30
2022-12-07T07:50:47.818Z,68.20
2022-12-07T07:51:48.015Z,67.60
2022-12-07T07:52:48.046Z,66.70
2022-12-07T07:53:48.198Z,68.20
2022-12-07T07:54:48.339Z,62.30
2022-12-07T07:55:48.479Z,59.70
2022-12-07T07:56:48.633Z,51.00
2022-12-07T07:57:54.484Z,53.20
2022-12-07T07:58:49.861Z,50.10
2022-12-07T07:59:49.031Z,49.60
2022-12-07T08:00:49.179Z,51.80
2022-12-07T08:01:49.421Z,51.80
2022-12-07T08:02:49.476Z,45.90
2022-12-07T08:03:49.604Z,44.10
2022-12-07T08:04:49.770Z,46.90
2022-12-07T08:05:49.897Z,42.80
2022-12-07T08:06:50.019Z,38.10
2022-12-07T08:07:50.189Z,40.80
2022-12-07T08:08:50.303Z,42.00
2022-12-07T08:09:50.420Z,39.20
2022-12-07T08:10:50.531Z,34.60
2022-12-07T08:11:50.666Z,39.40
2022-12-07T08:12:50.761Z,36.40
2022-12-07T08:13:50.876Z,36.00
2022-12-07T08:14:51.003Z,38.80
2022-12-07T08:15:51.145Z,37.50
2022-12-07T08:16:51.247Z,35.80
2022-12-07T08:17:51.360Z,32.90
2022-12-07T08:18:51.475Z,35.40
2022-12-07T08:19:51.593Z,32.20
2022-12-07T08:20:51.706Z,29.80
2022-12-07T08:21:51.864Z,32.20
2022-12-07T08:22:51.975Z,29.80
2022-12-07T08:23:52.102Z,27.20
2022-12-07T08:24:52.216Z,30.30
2022-12-07T08:25:52.328Z,24.50
2022-12-07T08:26:52.460Z,20.30
2022-12-07T08:27:52.585Z,20.50
2022-12-07T08:28:52.696Z,16.00
2022-12-07T08:29:52.836Z,15.40
2022-12-07T08:30:53.003Z,16.30
2022-12-07T08:31:53.162Z,15.70
2022-12-07T08:32:53.295Z,12.80
2022-12-07T08:33:53.444Z,14.60
2022-12-07T08:34:53.565Z,12.40
2022-12-07T08:35:53.684Z,15.70
2022-12-07T08:36:53.823Z,11.50
2022-12-07T08:37:53.939Z,11.50
2022-12-07T08:39:29.401Z,7.70
2022-12-07T08:39:55.254Z,6.10
2022-12-07T08:40:54.374Z,5.20
2022-12-07T08:41:54.506Z,5.60
2022-12-07T08:42:54.623Z,6.80
2022-12-07T08:43:54.741Z,5.70
2022-12-07T08:44:54.855Z,7.90
2022-12-07T08:45:55.030Z,5.70
2022-12-07T08:46:55.151Z,5.10
2022-12-07T08:47:55.211Z,4.20
2022-12-07T08:48:55.325Z,7.20
2022-12-07T08:49:55.488Z,7.20
2022-12-07T08:50:55.593Z,8.90
2022-12-07T08:51:55.768Z,4.80
2022-12-07T08:52:55.889Z,15.00
2022-12-07T08:53:56.026Z,6.70
2022-12-07T08:54:56.164Z,6.70
2022-12-07T08:55:56.289Z,10.50
2022-12-07T08:56:59.518Z,9.30
2022-12-07T08:57:56.518Z,7.20
2022-12-07T08:58:56.631Z,6.10
2022-12-07T08:59:56.757Z,8.60
2022-12-07T09:00:56.871Z,6.10
2022-12-07T09:01:57.053Z,7.80
2022-12-07T09:02:57.162Z,5.80
2022-12-07T09:03:57.280Z,5.30
2022-12-07T09:04:57.390Z,11.30
2022-12-07T09:05:57.687Z,5.90
2022-12-07T09:06:57.712Z,3.60
2022-12-07T09:07:57.819Z,3.50
2022-12-07T09:08:57.951Z,5.20
2022-12-07T09:09:58.078Z,3.90
2022-12-07T09:10:58.198Z,4.20
2022-12-07T09:11:58.337Z,3.70
2022-12-07T09:12:58.448Z,4.90
2022-12-07T09:13:58.580Z,7.20
2022-12-07T09:14:58.693Z,5.10
2022-12-07T09:15:58.891Z,4.70
2022-12-07T09:16:58.958Z,4.40
2022-12-07T09:17:59.111Z,5.50
2022-12-07T09:18:59.207Z,4.20
2022-12-07T09:19:59.647Z,4.90
2022-12-07T09:20:59.500Z,5.80
2022-12-07T09:21:59.648Z,6.30
2022-12-07T09:22:59.769Z,10.60
2022-12-07T09:23:59.897Z,5.60
2022-12-07T09:25:00.031Z,7.10
2022-12-07T09:26:00.118Z,5.80
2022-12-07T09:27:00.250Z,5.90
2022-12-07T09:28:00.370Z,4.50
2022-12-07T09:29:00.463Z,5.70
2022-12-07T09:30:01.007Z,7.80
2022-12-07T09:31:22.792Z,8.10
2022-12-07T09:32:05.455Z,6.00
2022-12-07T09:33:01.936Z,9.00
2022-12-07T09:34:01.164Z,8.30
2022-12-07T09:35:01.127Z,7.80
2022-12-07T09:36:01.234Z,8.90
2022-12-07T09:37:01.316Z,8.20
2022-12-07T09:38:01.442Z,8.80
2022-12-07T09:39:01.543Z,7.10
2022-12-07T09:40:01.660Z,6.50
2022-12-07T09:41:01.733Z,8.20
2022-12-07T09:42:01.861Z,6.10
2022-12-07T09:43:02.001Z,4.70
2022-12-07T09:44:02.124Z,6.90
2022-12-07T09:45:02.224Z,4.90
2022-12-07T09:46:02.414Z,5.20
2022-12-07T09:47:02.428Z,6.40
2022-12-07T09:48:02.553Z,4.00
2022-12-07T09:49:02.634Z,7.00
2022-12-07T09:50:03.032Z,12.20
2022-12-07T09:51:03.812Z,6.40
2022-12-07T09:52:02.905Z,4.60
2022-12-07T09:53:03.016Z,3.70
2022-12-07T09:54:03.129Z,7.00
2022-12-07T09:55:03.361Z,5.90
2022-12-07T09:56:15.292Z,5.90
2022-12-07T09:57:04.507Z,6.70
2022-12-07T09:58:03.620Z,5.20
2022-12-07T09:59:03.720Z,7.20
2022-12-07T10:00:03.846Z,9.70
2022-12-07T10:01:03.960Z,6.80
2022-12-07T10:02:04.208Z,5.40
2022-12-07T10:03:04.224Z,5.50
2022-12-07T10:04:04.384Z,5.60
2022-12-07T10:05:06.186Z,5.40
2022-12-07T10:06:04.568Z,8.40
2022-12-07T10:07:04.714Z,5.40
2022-12-07T10:08:04.875Z,6.60
2022-12-07T10:09:04.918Z,5.20
2022-12-07T10:10:05.010Z,5.80
2022-12-07T10:11:05.109Z,8.20
2022-12-07T10:12:05.228Z,5.20
2022-12-07T10:13:05.327Z,5.20
2022-12-07T10:14:05.431Z,7.20
2022-12-07T10:15:07.619Z,4.30
2022-12-07T10:16:07.389Z,5.60
2022-12-07T10:17:05.811Z,5.80
2022-12-07T10:18:05.980Z,5.00
2022-12-07T10:19:06.069Z,6.70
2022-12-07T10:20:06.190Z,4.00
2022-12-07T10:21:06.278Z,4.10
2022-12-07T10:22:06.406Z,4.70
2022-12-07T10:23:06.509Z,7.90
2022-12-07T10:24:06.600Z,7.00
2022-12-07T10:25:06.704Z,5.40
2022-12-07T10:26:06.803Z,3.10
2022-12-07T10:27:06.912Z,4.60
2022-12-07T10:28:07.025Z,3.90
2022-12-07T10:29:07.114Z,5.90
2022-12-07T10:30:07.221Z,6.50
2022-12-07T10:31:07.399Z,3.00
2022-12-07T10:32:07.505Z,7.90
2022-12-07T10:33:07.599Z,5.40
2022-12-07T10:34:07.706Z,6.00
2022-12-07T10:35:07.917Z,5.10
2022-12-07T10:36:08.016Z,9.00
2022-12-07T10:37:08.130Z,6.80
2022-12-07T10:38:08.251Z,6.40
2022-12-07T10:39:08.350Z,5.80
2022-12-07T10:40:08.456Z,5.30
2022-12-07T10:41:08.545Z,6.00
2022-12-07T10:42:08.674Z,7.10
2022-12-07T10:43:08.742Z,5.90
2022-12-07T10:44:08.840Z,7.80
2022-12-07T10:45:08.969Z,7.80
2022-12-07T10:46:14.765Z,6.40
2022-12-07T10:47:10.234Z,7.90
2022-12-07T10:48:09.363Z,7.50
2022-12-07T10:49:10.400Z,7.70
2022-12-07T10:50:09.618Z,9.30
2022-12-07T10:51:09.711Z,6.40
2022-12-07T10:52:09.807Z,6.40
2022-12-07T10:53:09.877Z,7.30
2022-12-07T10:54:09.979Z,6.90
2022-12-07T10:55:10.050Z,6.20
2022-12-07T10:56:10.262Z,15.20
2022-12-07T10:57:10.344Z,8.90
2022-12-07T10:58:10.432Z,7.90
2022-12-07T10:59:10.523Z,10.20
2022-12-07T11:00:10.608Z,14.60
2022-12-07T11:01:10.730Z,8.90
2022-12-07T11:02:10.876Z,11.00
2022-12-07T11:03:10.864Z,10.20
2022-12-07T11:04:11.065Z,20.20
2022-12-07T11:05:11.133Z,13.10
2022-12-07T11:06:11.332Z,12.10
2022-12-07T11:07:11.413Z,11.80
2022-12-07T11:08:11.560Z,11.90
2022-12-07T11:09:11.621Z,17.80
2022-12-07T11:10:11.813Z,11.10
2022-12-07T11:11:19.473Z,16.60
2022-12-07T11:12:11.959Z,13.50
2022-12-07T11:13:12.025Z,10.70
2022-12-07T11:14:12.213Z,32.10
2022-12-07T11:15:12.277Z,11.70
2022-12-07T11:16:12.519Z,15.20
2022-12-07T11:17:12.636Z,11.50
2022-12-07T11:18:12.809Z,8.50
2022-12-07T11:19:12.871Z,7.00
2022-12-07T11:20:13.049Z,8.60
2022-12-07T11:21:13.132Z,12.60
2022-12-07T11:22:13.240Z,11.60
2022-12-07T11:23:13.307Z,14.00
2022-12-07T11:24:13.497Z,11.00
2022-12-07T11:25:13.594Z,9.80
2022-12-07T11:26:13.697Z,13.10
2022-12-07T11:27:13.764Z,9.40
2022-12-07T11:28:13.952Z,12.30
2022-12-07T11:29:14.046Z,9.60
2022-12-07T11:30:14.148Z,20.20
2022-12-07T11:31:14.278Z,14.30
2022-12-07T11:32:14.377Z,20.60
2022-12-07T11:33:14.558Z,10.70
2022-12-07T11:34:14.748Z,18.10
2022-12-07T11:35:14.845Z,11.60
2022-12-07T11:36:14.931Z,9.50
2022-12-07T11:37:15.004Z,10.40
2022-12-07T11:38:15.186Z,9.50
2022-12-07T11:39:15.874Z,8.30
2022-12-07T11:40:15.424Z,7.10
2022-12-07T11:41:15.503Z,12.00
2022-12-07T11:42:15.581Z,7.50
2022-12-07T11:43:15.650Z,11.80
2022-12-07T11:44:15.845Z,10.80
2022-12-07T11:45:15.909Z,13.00
2022-12-07T11:46:16.157Z,14.40
2022-12-07T11:47:16.224Z,13.80
2022-12-07T11:48:16.425Z,8.40
2022-12-07T11:49:16.479Z,15.50
2022-12-07T11:50:16.650Z,13.20
2022-12-07T11:51:16.843Z,26.90
2022-12-07T11:52:16.909Z,14.30
2022-12-07T11:53:17.090Z,8.40
2022-12-07T11:54:17.258Z,8.50
2022-12-07T11:55:17.346Z,7.00
2022-12-07T11:56:17.423Z,9.30
2022-12-07T11:57:20.152Z,9.20
2022-12-07T11:58:17.559Z,13.50
2022-12-07T11:59:17.756Z,12.30
2022-12-07T12:00:17.810Z,9.20
2022-12-07T12:01:18.005Z,9.80
2022-12-07T12:02:18.114Z,10.10
2022-12-07T12:03:18.239Z,9.00
2022-12-07T12:04:18.284Z,9.90
2022-12-07T12:05:18.370Z,9.10
2022-12-07T12:06:18.440Z,10.20
2022-12-07T12:10:19.962Z,7.50
2022-12-07T12:11:19.166Z,9.50
2022-12-07T12:14:36.624Z,9.00
2022-12-07T12:15:20.552Z,10.30
2022-12-07T12:16:19.765Z,8.20
2022-12-07T12:17:19.840Z,9.20
2022-12-07T12:18:19.890Z,10.10
2022-12-07T12:19:20.087Z,15.00
2022-12-07T12:20:20.250Z,14.70
2022-12-07T12:21:20.308Z,10.10
2022-12-07T12:22:20.356Z,8.60
2022-12-07T12:23:20.525Z,9.00
2022-12-07T12:24:20.680Z,11.20
2022-12-07T12:25:20.829Z,8.80
2022-12-07T12:26:21.102Z,7.90
2022-12-07T12:27:21.079Z,8.10
2022-12-07T12:28:21.238Z,9.50
2022-12-07T12:29:21.412Z,12.40
2022-12-07T12:30:21.568Z,6.60
2022-12-07T12:31:21.816Z,12.30
2022-12-07T12:32:21.901Z,10.00
2022-12-07T12:33:21.938Z,8.10
2022-12-07T12:34:21.990Z,8.80
2022-12-07T12:35:22.178Z,17.60
2022-12-07T12:36:22.253Z,12.10
2022-12-07T12:37:22.356Z,7.30
2022-12-07T12:38:22.399Z,15.60
2022-12-07T12:39:22.616Z,12.40
2022-12-07T12:40:22.679Z,10.60
2022-12-07T12:41:22.864Z,19.50
2022-12-07T12:42:22.908Z,12.70
2022-12-07T12:43:23.087Z,10.40
2022-12-07T12:44:23.234Z,9.90
2022-12-07T12:45:23.417Z,10.50
2022-12-07T12:46:23.577Z,10.80
2022-12-07T12:47:23.624Z,10.20
2022-12-07T12:48:23.684Z,11.70
2022-12-07T12:49:23.851Z,12.80
2022-12-07T12:50:24.017Z,10.40
2022-12-07T12:51:24.208Z,13.50
2022-12-07T12:52:24.279Z,11.90
2022-12-07T12:53:24.449Z,10.60
2022-12-07T12:54:24.593Z,10.90
2022-12-07T12:55:24.753Z,11.40
2022-12-07T12:56:24.943Z,10.30
2022-12-07T12:57:25.073Z,13.10
2022-12-07T12:58:25.096Z,9.30
2022-12-07T12:59:25.258Z,10.80
2022-12-07T13:00:25.417Z,10.80
2022-12-07T13:01:25.645Z,13.50
2022-12-07T13:02:25.775Z,13.30